• Join FlightAware (Why Join?)
  • Login
  • US Flag 
01:54AM EDT


 

Airport Tracker/Info


-or-


 

Live Flight TrackerFlight Track Log ✈ CTL17 ✈ 20-Jun-2013 ✈ KBKL - KPTK

Flight Track Log - Related Links

Times and Time Zones

All times are in EDT time to prevent confusion due to time zone crossing. See the CTL17 flight status page for this flight to view local times or setup timezone preferences in your user account.

Time Position Orientation Groundspeed Altitude Reporting Facility
EDT Latitude Longitude Course Direction KTS MPH feet Rate Location/Type
06:45PM 41.5714 -81.6489 26° Northeast 139 160 2,000  Level Cleveland Center
06:46PM 41.6025 -81.6800 323° Northwest 162 186 2,700 120 Climbing Cleveland Center
06:47PM 41.5769 -81.7239 232° Southwest 170 196 2,300 -660 Descending Cleveland Center
06:48PM 41.5456 -81.7428 204° Southwest 178 205 1,600 -720 Descending Cleveland Center
06:49PM 41.5083 -81.7172 153° Southeast 120 138 1,100  Descending Cleveland Center
07:17PM 41.5544 -81.6681 North 122 140 1,800  Climbing Cleveland Center
07:18PM 41.5942 -81.6797 348° North 160 184 2,200 480 Climbing Cleveland Center
07:19PM 41.6356 -81.7028 337° Northwest 147 169 2,800 540 Climbing Cleveland Center
07:20PM 41.6517 -81.7531 293° West 149 171 3,300 480 Climbing Cleveland Center
07:21PM 41.6658 -81.8033 291° West 145 167 3,800 540 Climbing Cleveland Center
07:22PM 41.6778 -81.8536 288° West 140 161 4,400 540 Climbing Cleveland Center
07:23PM 41.6897 -81.8983 290° West 138 159 4,900 540 Climbing Cleveland Center
07:24PM 41.7017 -81.9486 288° West 134 154 5,500 540 Climbing Cleveland Center
07:25PM 41.7136 -81.9961 289° West 132 152 6,000 300 Climbing Cleveland Center
07:26PM 41.7256 -82.0467 288° West 140 161 6,200 60 Climbing Cleveland Center
07:27PM 41.7372 -82.1025 286° West 152 175 6,200 -180 Level Cleveland Center
07:28PM 41.7489 -82.1583 286° West 152 175 5,900 -120 Descending Cleveland Center
07:30PM 41.7728 -82.2481 290° West 152 175 6,000 60 Climbing Cleveland Center
07:31PM 41.8075 -82.2881 319° Northwest 160 184 6,100  Climbing Cleveland Center
07:32PM 41.8425 -82.3308 318° Northwest 157 181 6,100  Level Cleveland Center
07:33PM 41.8792 -82.3736 319° Northwest 159 183 6,100 -60 Level Cleveland Center
07:34PM 41.9161 -82.4219 316° Northwest 159 183 6,000  Descending Cleveland Center
07:35PM 41.9467 -82.4564 320° Northwest 161 185 6,100  Climbing Cleveland Center
07:36PM 41.9814 -82.5022 316° Northwest 157 181 6,100  Level Cleveland Center
07:37PM 42.0119 -82.5478 312° West 158 182 6,100  Level Cleveland Center
07:38PM 42.0444 -82.5881 317° Northwest 160 184 6,100 -60 Level Cleveland Center
07:39PM 42.0772 -82.6281 318° Northwest 159 183 6,000  Descending Cleveland Center
07:40PM 42.1183 -82.6631 328° Northwest 160 184 6,100  Climbing Cleveland Center
07:41PM 42.1572 -82.6978 327° Northwest 161 185 6,100  Level Cleveland Center
07:42PM 42.1878 -82.7381 316° Northwest 164 189 6,100 -60 Level Cleveland Center
07:43PM 42.2267 -82.7731 326° Northwest 154 177 6,000 -60 Descending Cleveland Center
07:44PM 42.2575 -82.8022 325° Northwest 156 180 6,000  Level Cleveland Center
07:45PM 42.2964 -82.8372 326° Northwest 155 178 6,100  Climbing Cleveland Center
07:46PM 42.3331 -82.8722 325° Northwest 155 178 6,100 -60 Level Cleveland Center
07:47PM 42.3658 -82.9100 320° Northwest 158 182 6,000 -420 Descending Cleveland Center
07:48PM 42.4006 -82.9478 321° Northwest 178 205 5,300 -900 Descending Cleveland Center
07:49PM 42.4394 -82.9831 326° Northwest 178 205 4,400 -660 Descending Cleveland Center
07:50PM 42.4822 -83.0242 325° Northwest 177 204 4,000 -180 Descending Cleveland Center
07:51PM 42.5292 -83.0739 322° Northwest 165 190 4,000  Level Cleveland Center
07:52PM 42.5658 -83.1092 325° Northwest 167 192 4,000 -360 Level Cleveland Center
07:53PM 42.5919 -83.1581 306° West 177 204 3,400 -780 Descending Cleveland Center
07:54PM 42.6156 -83.2128 300° West 180 207 2,600 -720 Descending Cleveland Center
07:55PM 42.6372 -83.2672 298° West 175 201 2,100 -360 Descending Cleveland Center
07:56PM 42.6567 -83.3275 294° West 154 177 1,900 -300 Descending Cleveland Center
07:57PM 42.6658 -83.3786 284° West 119 137 1,500 -420 Descending Cleveland Center
07:59PM 42.6500 -83.4167 304° West  Level FlightAware Approximate